Analomink, Pennsylvania
Current Conditions -  °F | °C
As of 9:53 PM on Thursday 27 Nov 2014 (Local Time) from KMPO Reporting Station
Clear Clear  
Wind Chill: 12°   Ceiling: Unl
Heat Index: 22°   Visibility: 10mi
Dew Point: 18°   Wind: 9mph
Humidity: 85%   Direction: 310°NW
Pressure: 29.99"   Gusts: NA
Location:  41.05°N, 75.22°W
Report Text: KMPO 280253Z AUTO 31008KT 10SM CLR M06/M08 A2999 RMK AO2 SLP181 T10561078 53009
Loading
Personal Weather Stations






























Interactive Weather Map New forecast layout! Learn more

10-Day Weather Forecast

Advertisements
Track Severe Weather on mobile